Terminal Aerodrome Forecast
Issued by NWS Charleston, WV

Current Version | Previous Version | Graphics & Text | Print | Product List | Glossary On
Versions: 1 2 3 4 5 6 7 8 9 10 11 12 13 14 15 16 17 18 19 20 21 22
000
FTUS41 KRLX 221731
TAFBKW
TAF
KBKW 221731Z 2218/2318 VRB03KT P6SM BKN080
     FM222200 23007KT P6SM VCTS OVC050CB
      TEMPO 2223/2302 4SM SHRA OVC040
     FM230200 18006KT 4SM SHRA VCTS OVC040CB
     FM230400 16006KT 3SM SHRA OVC035
     FM230500 17007KT P6SM OVC025
     FM231200 21010KT P6SM OVC020
     FM231400 21011G18KT P6SM OVC035=

USA.gov is the U.S. government's official web portal to all federal, state and local government web resources and services.